createdAt,value
2022-08-26T00:00:22.778Z,0.32
2022-08-26T00:05:29.417Z,0.36
2022-08-26T00:10:35.807Z,0.30
2022-08-26T00:15:42.543Z,0.32
2022-08-26T00:20:48.937Z,0.40
2022-08-26T00:25:55.727Z,0.31
2022-08-26T00:31:01.696Z,0.40
2022-08-26T00:36:08.445Z,0.20
2022-08-26T00:41:14.375Z,0.23
2022-08-26T00:46:21.067Z,0.27
2022-08-26T00:51:29.734Z,0.38
2022-08-26T00:56:33.769Z,0.21
2022-08-26T01:01:40.220Z,0.27
2022-08-26T01:06:47.422Z,0.31
2022-08-26T01:11:53.915Z,0.24
2022-08-26T01:17:00.601Z,0.22
2022-08-26T01:22:06.977Z,0.48
2022-08-26T01:27:13.662Z,0.30
2022-08-26T01:32:20.070Z,0.28
2022-08-26T01:37:26.849Z,0.33
2022-08-26T01:42:33.292Z,0.58
2022-08-26T01:47:40.039Z,0.43
2022-08-26T01:52:45.944Z,0.66
2022-08-26T01:57:52.304Z,0.50
2022-08-26T02:02:58.232Z,0.35
2022-08-26T02:08:05.507Z,0.48
2022-08-26T02:13:11.973Z,0.55
2022-08-26T02:18:18.215Z,0.26
2022-08-26T02:23:24.644Z,0.41
2022-08-26T02:28:31.302Z,0.53
2022-08-26T02:33:37.720Z,0.48
2022-08-26T02:38:44.108Z,0.38
2022-08-26T02:43:50.013Z,0.51
2022-08-26T02:48:56.694Z,0.51
2022-08-26T02:54:03.162Z,0.39
2022-08-26T02:59:09.448Z,0.46
2022-08-26T03:04:15.935Z,0.48
2022-08-26T03:09:23.582Z,0.44
2022-08-26T03:14:30.033Z,0.55
2022-08-26T03:19:36.835Z,0.43
2022-08-26T03:24:44.428Z,0.45
2022-08-26T03:29:49.627Z,0.41
2022-08-26T03:34:55.473Z,0.41
2022-08-26T03:40:02.342Z,0.43
2022-08-26T03:45:08.662Z,0.57
2022-08-26T03:50:17.299Z,0.26
2022-08-26T03:55:23.779Z,0.36
2022-08-26T04:00:30.379Z,0.48
2022-08-26T04:05:36.781Z,0.33
2022-08-26T04:10:43.970Z,0.37
2022-08-26T04:15:50.478Z,0.53
2022-08-26T04:20:57.268Z,0.46
2022-08-26T04:26:03.733Z,0.51
2022-08-26T04:31:10.176Z,0.44
2022-08-26T04:36:16.513Z,0.43
2022-08-26T04:41:23.611Z,0.53
2022-08-26T04:46:29.666Z,0.36
2022-08-26T04:51:36.277Z,0.55
2022-08-26T04:56:42.471Z,0.36
2022-08-26T05:01:49.047Z,0.53
2022-08-26T05:07:02.322Z,0.63
2022-08-26T05:12:02.379Z,0.60
2022-08-26T05:17:08.308Z,0.42
2022-08-26T05:22:15.173Z,0.41
2022-08-26T05:27:21.149Z,0.37
2022-08-26T05:32:28.779Z,0.60
2022-08-26T05:37:34.942Z,0.48
2022-08-26T05:42:44.091Z,0.49
2022-08-26T05:47:50.516Z,0.68
2022-08-26T05:52:56.745Z,0.45
2022-08-26T05:58:03.200Z,0.52
2022-08-26T06:03:10.278Z,0.52
2022-08-26T06:08:20.762Z,0.42
2022-08-26T06:13:19.108Z,0.53
2022-08-26T06:18:25.599Z,0.29
2022-08-26T06:23:34.762Z,0.65
2022-08-26T06:28:43.542Z,0.42
2022-08-26T06:33:53.574Z,0.38
2022-08-26T06:38:51.362Z,0.43
2022-08-26T06:44:03.180Z,0.46
2022-08-26T06:49:02.540Z,0.46
2022-08-26T06:54:12.165Z,0.44
2022-08-26T06:59:20.524Z,0.53
2022-08-26T07:04:34.177Z,0.38
2022-08-26T07:09:31.930Z,0.33
2022-08-26T07:14:41.373Z,0.48
2022-08-26T07:19:51.618Z,0.34
2022-08-26T07:24:49.798Z,0.45
2022-08-26T07:30:06.263Z,0.47
2022-08-26T07:35:07.675Z,0.54
2022-08-26T07:40:04.723Z,0.47
2022-08-26T07:45:14.226Z,0.47
2022-08-26T07:50:49.402Z,0.37
2022-08-26T07:55:33.851Z,0.53
2022-08-26T08:00:41.053Z,0.43
2022-08-26T08:05:50.625Z,0.60
2022-08-26T08:10:57.945Z,0.51
2022-08-26T08:16:12.674Z,0.45
2022-08-26T08:21:21.794Z,0.33
2022-08-26T08:26:29.078Z,0.49
2022-08-26T08:31:56.108Z,0.51
2022-08-26T08:36:42.617Z,0.40
2022-08-26T08:41:38.016Z,0.56
2022-08-26T08:46:45.491Z,0.58
2022-08-26T08:51:52.294Z,0.35
2022-08-26T08:56:59.719Z,0.59
2022-08-26T09:02:06.505Z,0.56
2022-08-26T09:07:15.622Z,0.65
2022-08-26T09:12:29.477Z,0.57
2022-08-26T09:17:30.254Z,0.64
2022-08-26T09:22:37.376Z,0.55
2022-08-26T09:27:46.899Z,0.72
2022-08-26T09:33:10.804Z,0.50
2022-08-26T09:38:13.054Z,0.47
2022-08-26T09:43:09.397Z,0.59
2022-08-26T09:48:19.420Z,0.53
2022-08-26T09:53:17.165Z,0.98
2022-08-26T09:58:28.916Z,0.96
2022-08-26T10:03:31.342Z,0.94
2022-08-26T10:08:29.507Z,0.64
2022-08-26T10:13:38.470Z,0.81
2022-08-26T10:18:51.660Z,0.55
2022-08-26T10:23:53.946Z,0.51
2022-08-26T10:28:54.388Z,0.70
2022-08-26T10:33:56.653Z,0.56
2022-08-26T10:39:04.596Z,0.68
2022-08-26T10:44:05.307Z,0.48
2022-08-26T10:49:08.909Z,0.80
2022-08-26T10:54:07.682Z,0.56
2022-08-26T10:59:23.210Z,0.62
2022-08-26T11:04:22.370Z,0.68
2022-08-26T11:09:28.807Z,0.49
2022-08-26T11:14:46.150Z,0.73
2022-08-26T11:20:00.881Z,0.62
2022-08-26T11:24:47.100Z,0.63
2022-08-26T11:29:59.457Z,0.50
2022-08-26T11:34:56.356Z,0.65
2022-08-26T11:40:02.925Z,0.43
2022-08-26T11:45:08.321Z,0.62
2022-08-26T11:50:15.412Z,0.60
2022-08-26T11:55:29.668Z,0.56
2022-08-26T12:00:34.646Z,0.54
2022-08-26T12:05:36.797Z,0.45
2022-08-26T12:10:38.702Z,0.49
2022-08-26T12:15:38.483Z,0.49
2022-08-26T12:20:48.781Z,0.54
2022-08-26T12:25:49.548Z,0.57
2022-08-26T12:30:48.173Z,0.44
2022-08-26T12:35:56.993Z,0.34
2022-08-26T12:41:06.140Z,0.72
2022-08-26T12:46:04.001Z,0.43
2022-08-26T12:51:13.855Z,0.57
2022-08-26T12:56:15.464Z,0.63
2022-08-26T13:01:19.515Z,0.38
2022-08-26T13:06:20.124Z,0.49
2022-08-26T13:11:18.578Z,0.57
2022-08-26T13:16:27.275Z,0.47
2022-08-26T13:21:39.970Z,0.51
2022-08-26T13:26:41.695Z,0.64
2022-08-26T13:31:41.887Z,0.40
2022-08-26T13:36:49.322Z,0.42
2022-08-26T13:41:58.677Z,0.48
2022-08-26T13:47:06.410Z,0.53
2022-08-26T13:52:17.813Z,0.61
2022-08-26T13:57:15.295Z,0.53
2022-08-26T14:02:24.019Z,0.34
2022-08-26T14:07:32.415Z,0.47
2022-08-26T14:12:42.747Z,0.52
2022-08-26T14:17:41.002Z,0.39
2022-08-26T14:23:12.716Z,0.37
2022-08-26T14:27:59.127Z,0.44
2022-08-26T14:33:11.101Z,0.46
2022-08-26T14:38:09.131Z,0.39
2022-08-26T14:43:19.027Z,0.40
2022-08-26T14:48:27.644Z,0.42
2022-08-26T14:53:41.065Z,0.34
2022-08-26T14:58:39.578Z,0.29
2022-08-26T15:03:48.345Z,0.45
2022-08-26T15:08:56.720Z,0.43
2022-08-26T15:14:14.790Z,0.39
2022-08-26T15:19:09.900Z,0.34
2022-08-26T15:24:32.549Z,0.34
2022-08-26T15:29:36.292Z,0.34
2022-08-26T15:34:33.899Z,0.40
2022-08-26T15:39:44.181Z,0.29
2022-08-26T15:44:50.011Z,0.52
2022-08-26T15:50:00.200Z,0.35
2022-08-26T15:54:58.250Z,0.37
2022-08-26T16:00:07.619Z,0.27
2022-08-26T16:05:16.415Z,0.43
2022-08-26T16:10:24.164Z,0.45
2022-08-26T16:15:30.938Z,0.29
2022-08-26T16:20:37.381Z,0.50
2022-08-26T16:25:44.413Z,0.42
2022-08-26T16:30:51.077Z,0.31
2022-08-26T16:35:57.916Z,0.42
2022-08-26T16:41:04.395Z,0.37
2022-08-26T16:46:11.240Z,0.51
2022-08-26T16:51:19.324Z,0.45
2022-08-26T16:56:30.589Z,0.28
2022-08-26T17:01:33.153Z,0.34
2022-08-26T17:06:40.298Z,0.25
2022-08-26T17:11:47.200Z,0.47
2022-08-26T17:16:54.720Z,0.28
2022-08-26T17:22:01.179Z,0.37
2022-08-26T17:27:07.636Z,0.44
2022-08-26T17:32:14.468Z,0.34
2022-08-26T17:37:21.576Z,0.49
2022-08-26T17:42:31.638Z,0.46
2022-08-26T17:47:34.430Z,0.38
2022-08-26T17:52:40.887Z,0.52
2022-08-26T17:57:47.756Z,0.36
2022-08-26T18:02:53.736Z,0.46
2022-08-26T18:08:00.513Z,0.35
2022-08-26T18:13:06.910Z,0.41
2022-08-26T18:18:16.137Z,0.38
2022-08-26T18:23:23.854Z,0.55
2022-08-26T18:28:32.248Z,0.52
2022-08-26T18:33:38.917Z,0.59
2022-08-26T18:38:45.674Z,0.75
2022-08-26T18:43:51.612Z,0.68
2022-08-26T18:48:58.666Z,0.77
2022-08-26T18:54:05.279Z,0.66
2022-08-26T18:59:11.942Z,0.81
2022-08-26T19:04:18.327Z,0.85
2022-08-26T19:09:25.151Z,1.00
2022-08-26T19:14:31.601Z,0.90
2022-08-26T19:19:38.316Z,1.12
2022-08-26T19:24:44.792Z,0.94
2022-08-26T19:29:51.588Z,0.98
2022-08-26T19:34:58.481Z,1.19
2022-08-26T19:40:05.388Z,1.01
2022-08-26T19:45:24.320Z,0.92
2022-08-26T19:50:18.220Z,0.87
2022-08-26T19:55:24.741Z,0.97
2022-08-26T20:00:31.643Z,0.78
2022-08-26T20:05:38.038Z,0.78
2022-08-26T20:10:44.922Z,0.72
2022-08-26T20:15:51.411Z,0.69
2022-08-26T20:20:58.238Z,0.72
2022-08-26T20:26:04.769Z,0.88
2022-08-26T20:31:12.419Z,0.90
2022-08-26T20:36:22.899Z,0.78
2022-08-26T20:41:20.088Z,0.64
2022-08-26T20:46:26.699Z,0.73
2022-08-26T20:51:34.296Z,0.67
2022-08-26T20:56:40.785Z,0.54
2022-08-26T21:01:47.683Z,0.36
2022-08-26T21:06:55.395Z,0.58
2022-08-26T21:12:02.305Z,0.49
2022-08-26T21:17:08.753Z,0.41
2022-08-26T21:22:15.570Z,0.53
2022-08-26T21:27:23.076Z,0.47
2022-08-26T21:32:28.543Z,0.61
2022-08-26T21:37:35.690Z,0.49
2022-08-26T21:42:42.489Z,0.52
2022-08-26T21:47:48.940Z,0.48
2022-08-26T21:52:55.724Z,0.27
2022-08-26T21:58:02.162Z,0.40
2022-08-26T22:03:09.147Z,0.31
2022-08-26T22:08:15.580Z,0.70
2022-08-26T22:13:22.296Z,0.43
2022-08-26T22:18:28.792Z,0.35
2022-08-26T22:23:35.584Z,0.52
2022-08-26T22:28:41.997Z,0.39
2022-08-26T22:33:48.757Z,0.45
2022-08-26T22:38:55.243Z,0.35
2022-08-26T22:44:02.042Z,0.31
2022-08-26T22:49:08.559Z,0.30
2022-08-26T22:54:15.284Z,0.44
2022-08-26T22:59:21.714Z,0.45
2022-08-26T23:04:28.707Z,0.38
2022-08-26T23:09:35.213Z,0.65
2022-08-26T23:14:57.848Z,0.39
2022-08-26T23:20:04.344Z,0.39
2022-08-26T23:25:11.139Z,0.40
2022-08-26T23:30:17.567Z,0.36
2022-08-26T23:35:24.432Z,0.35
2022-08-26T23:40:30.973Z,0.44
2022-08-26T23:45:38.566Z,0.34
2022-08-26T23:50:45.014Z,0.48
2022-08-26T23:55:52.479Z,0.40
